Time;durP1;ratioP1;P1;durP2;ratioP2;P2;SDS_P1;SDS_P2;PMS_P1;PMS_P2;Temp;Humidity;BMP_temperature;BMP_pressure;BME280_temperature;BME280_humidity;BME280_pressure;Samples;Min_cycle;Max_cycle;Signal;HPM_P1;HPM_P2
2024/01/31 00:00:08;;;;;;;171.90;62.53;;;-1.80;99.90;;;;;;5056027;28;20291;-86
2024/01/31 00:02:35;;;;;;;110.20;50.75;;;-1.70;99.90;;;;;;5047262;28;20342;-85
2024/01/31 00:05:02;;;;;;;113.23;51.50;;;-1.80;99.90;;;;;;5058236;28;20552;-86
2024/01/31 00:07:29;;;;;;;111.57;50.27;;;-1.70;99.90;;;;;;5065236;28;20448;-86
2024/01/31 00:09:57;;;;;;;133.70;53.22;;;-1.80;99.90;;;;;;5060055;28;20465;-85
2024/01/31 00:12:24;;;;;;;125.40;62.65;;;-1.80;99.90;;;;;;5046435;28;20198;-85
2024/01/31 00:14:51;;;;;;;123.57;49.30;;;-1.80;99.90;;;;;;5055859;28;20198;-86
2024/01/31 00:17:18;;;;;;;170.40;56.03;;;-1.80;99.90;;;;;;5061042;28;20198;-87
2024/01/31 00:19:45;;;;;;;136.50;56.53;;;-1.90;99.90;;;;;;5053480;28;20268;-85
2024/01/31 00:22:12;;;;;;;136.95;57.65;;;-2.00;99.90;;;;;;5055715;28;20258;-87
2024/01/31 00:24:39;;;;;;;181.27;58.05;;;-2.00;99.90;;;;;;5058636;28;20326;-85
2024/01/31 00:27:07;;;;;;;190.88;57.40;;;-2.00;99.90;;;;;;5060353;28;20283;-85
2024/01/31 00:29:34;;;;;;;222.02;66.13;;;-2.00;99.90;;;;;;5063929;28;20290;-85
2024/01/31 00:32:01;;;;;;;211.38;70.85;;;-1.90;99.90;;;;;;5061985;28;20759;-85
2024/01/31 00:34:29;;;;;;;229.40;72.32;;;-1.90;99.90;;;;;;5064317;28;20193;-86
2024/01/31 00:36:56;;;;;;;152.45;61.60;;;-1.80;99.90;;;;;;5056750;28;20214;-85
2024/01/31 00:39:28;;;;;;;129.52;58.45;;;-1.90;99.90;;;;;;5073739;28;20217;-86
2024/01/31 00:41:55;;;;;;;196.27;66.32;;;-1.90;99.90;;;;;;5060961;28;20193;-86
2024/01/31 00:44:24;;;;;;;154.18;61.58;;;-1.90;99.90;;;;;;5064679;28;20236;-85
2024/01/31 00:46:50;;;;;;;142.60;59.30;;;-2.00;99.90;;;;;;5067838;28;20209;-85
2024/01/31 00:49:17;;;;;;;166.30;59.33;;;-2.00;99.90;;;;;;5064703;28;20201;-85
2024/01/31 00:51:45;;;;;;;155.23;63.47;;;-1.90;99.90;;;;;;5087137;28;20193;-87
2024/01/31 00:54:12;;;;;;;148.25;57.33;;;-1.80;99.90;;;;;;5068765;28;20200;-85
2024/01/31 00:56:39;;;;;;;150.20;61.55;;;-1.80;99.90;;;;;;5067061;28;20208;-86
2024/01/31 00:59:06;;;;;;;205.32;69.13;;;-1.80;99.90;;;;;;5063032;28;20592;-86
2024/01/31 01:01:34;;;;;;;149.98;61.58;;;-1.90;99.90;;;;;;5065300;28;20278;-86
2024/01/31 01:04:02;;;;;;;143.13;65.28;;;-1.90;99.90;;;;;;5065229;28;20664;-86
2024/01/31 01:06:29;;;;;;;158.10;57.38;;;-1.90;99.90;;;;;;5064172;28;20683;-86
2024/01/31 01:08:56;;;;;;;157.82;66.75;;;-1.90;99.90;;;;;;5062794;28;20729;-85
2024/01/31 01:11:23;;;;;;;139.63;63.08;;;-1.90;99.90;;;;;;5073413;28;20261;-86
2024/01/31 01:13:50;;;;;;;148.27;62.38;;;-1.90;99.90;;;;;;5066679;28;20203;-86
2024/01/31 01:16:17;;;;;;;157.88;65.90;;;-1.90;99.90;;;;;;5068642;28;20250;-85
2024/01/31 01:18:46;;;;;;;126.07;57.78;;;-1.80;99.90;;;;;;5069152;28;20266;-87
2024/01/31 01:21:13;;;;;;;104.47;54.92;;;-1.80;99.90;;;;;;5069028;28;20194;-87
2024/01/31 01:23:40;;;;;;;128.65;54.97;;;-1.90;99.90;;;;;;5064756;28;20201;-86
2024/01/31 01:26:07;;;;;;;109.75;49.92;;;-1.90;99.90;;;;;;5051253;28;20296;-86
2024/01/31 01:28:33;;;;;;;120.05;53.55;;;-1.90;99.90;;;;;;5051121;28;20245;-86
2024/01/31 01:31:00;;;;;;;122.15;51.45;;;-1.80;99.90;;;;;;5063555;28;20538;-86
2024/01/31 01:33:27;;;;;;;134.30;49.22;;;-1.80;99.90;;;;;;5065323;28;20202;-85
2024/01/31 01:35:56;;;;;;;100.93;47.85;;;-1.90;99.90;;;;;;5066571;28;20229;-86
2024/01/31 01:38:22;;;;;;;119.70;58.58;;;-1.90;99.90;;;;;;5068663;28;20629;-86
2024/01/31 01:40:49;;;;;;;165.65;61.45;;;-1.80;99.90;;;;;;5068712;28;20202;-85
2024/01/31 01:43:17;;;;;;;137.63;57.90;;;-1.80;99.90;;;;;;5065604;28;20298;-86
2024/01/31 01:45:43;;;;;;;128.85;55.33;;;-1.90;99.90;;;;;;5069075;28;20711;-86
2024/01/31 01:48:11;;;;;;;109.65;49.17;;;-1.90;99.90;;;;;;5068070;28;20576;-86
2024/01/31 01:50:38;;;;;;;113.10;53.75;;;-2.00;99.90;;;;;;5063880;28;20248;-85
2024/01/31 01:53:07;;;;;;;129.80;54.33;;;-1.90;99.90;;;;;;5067019;28;20232;-86
2024/01/31 01:55:35;;;;;;;122.45;56.95;;;-1.90;99.90;;;;;;5072293;28;20199;-85
2024/01/31 01:58:02;;;;;;;132.23;57.45;;;-1.90;99.90;;;;;;5072477;28;20563;-85
2024/01/31 02:00:31;;;;;;;126.25;61.80;;;-1.90;99.90;;;;;;5070208;28;20234;-85
2024/01/31 02:02:58;;;;;;;134.05;57.00;;;-1.80;99.90;;;;;;5070411;28;20200;-87
2024/01/31 02:05:25;;;;;;;133.85;55.80;;;-1.80;99.90;;;;;;5069741;28;20786;-86
2024/01/31 02:07:52;;;;;;;118.47;59.30;;;-1.80;99.90;;;;;;5066938;28;20634;-86
2024/01/31 02:10:21;;;;;;;110.03;55.70;;;-1.90;99.90;;;;;;5067332;28;20237;-87
2024/01/31 02:12:47;;;;;;;107.40;56.80;;;-1.90;99.90;;;;;;5060363;28;20225;-85
2024/01/31 02:15:14;;;;;;;114.10;57.03;;;-1.90;99.90;;;;;;5067753;28;20851;-87
2024/01/31 02:17:41;;;;;;;113.70;51.42;;;-2.00;99.90;;;;;;5062059;28;20198;-87
2024/01/31 02:20:15;;;;;;;110.70;52.23;;;-1.90;99.90;;;;;;5064838;28;20433;-86
2024/01/31 02:22:45;;;;;;;113.40;53.20;;;-1.90;99.90;;;;;;5056344;28;20462;-85
2024/01/31 02:25:15;;;;;;;114.80;50.67;;;-1.80;99.90;;;;;;5058994;28;20202;-86
2024/01/31 02:27:42;;;;;;;106.72;46.42;;;-1.80;99.90;;;;;;5058645;28;20552;-86
2024/01/31 02:30:10;;;;;;;119.88;45.33;;;-1.90;99.90;;;;;;5059368;28;20582;-86
2024/01/31 02:32:37;;;;;;;105.47;50.53;;;-1.90;99.90;;;;;;5058640;28;20202;-86
2024/01/31 02:35:05;;;;;;;119.65;49.38;;;-1.90;99.90;;;;;;5055809;28;20191;-86
2024/01/31 02:37:32;;;;;;;106.70;52.38;;;-1.90;99.90;;;;;;5065452;28;20197;-87
2024/01/31 02:40:01;;;;;;;106.28;47.22;;;-1.80;99.90;;;;;;5055797;28;20221;-87
2024/01/31 02:42:28;;;;;;;102.22;43.95;;;-1.90;99.90;;;;;;5064500;28;20213;-85
2024/01/31 02:44:55;;;;;;;97.47;43.28;;;-1.90;99.90;;;;;;5057711;28;20226;-86
2024/01/31 02:47:22;;;;;;;95.90;41.65;;;-2.00;99.90;;;;;;5054951;28;20212;-87
2024/01/31 02:49:49;;;;;;;122.90;47.35;;;-2.00;99.90;;;;;;5065313;28;20197;-87
2024/01/31 02:52:16;;;;;;;100.93;48.05;;;-2.00;99.90;;;;;;5063095;28;20286;-87
2024/01/31 02:54:43;;;;;;;106.43;47.17;;;-2.00;99.90;;;;;;5067848;28;20477;-86
2024/01/31 02:57:11;;;;;;;106.03;48.60;;;-2.00;99.90;;;;;;5053833;28;20221;-86
2024/01/31 02:59:38;;;;;;;115.97;45.45;;;-1.90;99.90;;;;;;5061832;28;20240;-84
2024/01/31 03:02:06;;;;;;;108.53;47.97;;;-2.00;99.90;;;;;;5079089;28;20178;-85
2024/01/31 03:04:33;;;;;;;112.28;48.40;;;-2.00;99.90;;;;;;5060403;28;20204;-87
2024/01/31 03:07:00;;;;;;;140.75;51.85;;;-2.00;99.90;;;;;;5067697;28;20193;-85
2024/01/31 03:09:27;;;;;;;123.78;49.75;;;-1.90;99.90;;;;;;5049988;28;20210;-85
2024/01/31 03:11:54;;;;;;;113.30;48.88;;;-2.00;99.90;;;;;;5060302;28;20228;-86
2024/01/31 03:14:23;;;;;;;108.93;46.63;;;-2.00;99.90;;;;;;5057517;28;20197;-85
2024/01/31 03:16:50;;;;;;;107.50;46.58;;;-2.00;99.90;;;;;;5059404;28;20266;-85
2024/01/31 03:19:17;;;;;;;102.63;46.78;;;-2.10;99.90;;;;;;5061539;28;20311;-85
2024/01/31 03:21:44;;;;;;;103.43;46.10;;;-2.10;99.90;;;;;;5067502;28;20250;-87
2024/01/31 03:24:11;;;;;;;100.22;44.50;;;-2.00;99.90;;;;;;5065095;28;20758;-87
2024/01/31 03:26:38;;;;;;;99.18;45.13;;;-2.00;99.90;;;;;;5066492;28;20243;-85
2024/01/31 03:29:05;;;;;;;102.65;48.90;;;-2.00;99.90;;;;;;5052355;28;20226;-86
2024/01/31 03:31:33;;;;;;;100.07;48.20;;;-2.00;99.90;;;;;;5065143;28;20263;-86
2024/01/31 03:34:00;;;;;;;101.80;45.65;;;-2.00;99.90;;;;;;5063549;28;20191;-85
2024/01/31 03:36:27;;;;;;;106.90;50.35;;;-1.90;99.90;;;;;;5047849;28;20202;-85
2024/01/31 03:38:57;;;;;;;103.53;47.45;;;-2.00;99.90;;;;;;5066031;28;20263;-84
2024/01/31 03:41:24;;;;;;;102.45;43.97;;;-2.00;99.90;;;;;;5060554;28;20252;-85
2024/01/31 03:43:51;;;;;;;97.93;44.25;;;-1.90;99.90;;;;;;5052384;28;20251;-85
2024/01/31 03:46:18;;;;;;;98.50;44.67;;;-1.90;99.90;;;;;;5061673;28;20255;-86
2024/01/31 03:48:46;;;;;;;100.93;45.53;;;-1.90;99.90;;;;;;5054188;28;20707;-86
2024/01/31 03:51:19;;;;;;;101.65;43.80;;;-1.70;99.90;;;;;;5054524;28;20255;-85
2024/01/31 03:53:46;;;;;;;100.63;44.25;;;-1.90;99.90;;;;;;5058742;28;20663;-85
2024/01/31 03:56:13;;;;;;;99.30;46.50;;;-1.90;99.90;;;;;;5064119;28;20292;-85
2024/01/31 03:58:40;;;;;;;98.85;42.55;;;-1.90;99.90;;;;;;5059127;28;20193;-85
2024/01/31 04:01:08;;;;;;;99.00;39.50;;;-1.90;99.90;;;;;;5061618;28;20213;-85
2024/01/31 04:03:37;;;;;;;98.03;41.33;;;-1.80;99.90;;;;;;5066811;28;20275;-86
2024/01/31 04:06:06;;;;;;;105.75;43.17;;;-1.70;99.90;;;;;;5072733;28;20205;-85
2024/01/31 04:08:33;;;;;;;99.88;45.58;;;-1.70;99.90;;;;;;5076714;28;20556;-85
2024/01/31 04:11:00;;;;;;;101.07;42.03;;;-1.80;99.90;;;;;;5059524;28;20637;-85
2024/01/31 04:13:27;;;;;;;99.90;44.80;;;-1.80;99.90;;;;;;5057636;28;20197;-85
2024/01/31 04:15:54;;;;;;;102.15;43.88;;;-1.70;99.90;;;;;;5056483;28;20198;-85
2024/01/31 04:18:21;;;;;;;99.43;44.75;;;-1.80;99.90;;;;;;5055484;28;20197;-86
2024/01/31 04:20:48;;;;;;;106.10;44.75;;;-1.80;99.90;;;;;;5064073;28;20249;-85
2024/01/31 04:23:16;;;;;;;103.20;44.15;;;-1.90;99.90;;;;;;5064558;28;20217;-87
2024/01/31 04:25:44;;;;;;;102.55;43.67;;;-1.90;99.90;;;;;;5056758;28;20194;-85
2024/01/31 04:28:15;;;;;;;106.00;44.75;;;-1.90;99.90;;;;;;5057403;28;20274;-87
2024/01/31 04:30:42;;;;;;;100.90;44.40;;;-1.90;99.90;;;;;;5064961;28;20828;-85
2024/01/31 04:33:09;;;;;;;103.77;46.17;;;-2.00;99.90;;;;;;5065083;28;20247;-85
2024/01/31 04:35:36;;;;;;;101.17;40.73;;;-1.90;99.90;;;;;;5056336;28;20440;-85
2024/01/31 04:38:02;;;;;;;106.25;46.13;;;-1.90;99.90;;;;;;5061886;28;20939;-85
2024/01/31 04:40:31;;;;;;;98.23;40.10;;;-1.90;99.90;;;;;;5063536;28;20213;-86
2024/01/31 04:42:58;;;;;;;99.63;40.13;;;-1.90;99.90;;;;;;5063464;28;20453;-87
2024/01/31 04:45:25;;;;;;;100.20;37.53;;;-1.80;99.90;;;;;;5054547;28;20468;-85
2024/01/31 04:47:52;;;;;;;98.97;38.40;;;-1.80;99.90;;;;;;5059598;28;20212;-86
2024/01/31 04:50:18;;;;;;;103.18;39.30;;;-1.80;99.90;;;;;;5046549;28;20198;-86
2024/01/31 04:52:45;;;;;;;99.90;42.40;;;-1.80;99.90;;;;;;5058051;28;20689;-85
2024/01/31 04:55:14;;;;;;;100.90;41.63;;;-1.80;99.90;;;;;;5052069;28;21010;-86
2024/01/31 04:57:42;;;;;;;105.40;41.50;;;-1.90;99.90;;;;;;5062022;28;20450;-85
2024/01/31 05:00:16;;;;;;;124.18;47.47;;;-1.80;99.90;;;;;;5063080;28;20253;-85
2024/01/31 05:02:43;;;;;;;120.18;45.88;;;-1.80;99.90;;;;;;5072584;28;20727;-85
2024/01/31 05:05:10;;;;;;;149.75;47.35;;;-1.90;99.90;;;;;;5054783;28;20664;-85
2024/01/31 05:07:37;;;;;;;114.68;46.05;;;-1.80;99.90;;;;;;5056287;28;20237;-85
2024/01/31 05:10:04;;;;;;;137.73;47.88;;;-1.90;99.90;;;;;;5064889;28;20194;-84
2024/01/31 05:12:31;;;;;;;137.77;48.47;;;-1.90;99.90;;;;;;5088146;28;20703;-85
2024/01/31 05:14:59;;;;;;;125.80;49.70;;;-1.90;99.90;;;;;;5056932;28;20201;-85
2024/01/31 05:17:26;;;;;;;249.45;64.78;;;-1.80;99.90;;;;;;5065094;28;20194;-87
2024/01/31 05:19:53;;;;;;;247.77;66.97;;;-1.80;99.90;;;;;;5066385;28;20217;-86
2024/01/31 05:22:20;;;;;;;170.80;53.20;;;-1.70;99.90;;;;;;5061806;28;20194;-85
2024/01/31 05:24:47;;;;;;;186.43;52.55;;;-1.70;99.90;;;;;;5062121;28;20194;-85
2024/01/31 05:27:14;;;;;;;127.05;45.35;;;-1.80;99.90;;;;;;5062347;28;20197;-85
2024/01/31 05:29:41;;;;;;;114.13;49.20;;;-1.80;99.90;;;;;;5053702;28;20688;-86
2024/01/31 05:32:09;;;;;;;168.90;54.47;;;-1.90;99.90;;;;;;5057801;28;20201;-87
2024/01/31 05:34:37;;;;;;;139.75;46.28;;;-1.80;99.90;;;;;;5061827;28;20247;-87
2024/01/31 05:37:04;;;;;;;114.27;51.30;;;-1.70;99.90;;;;;;5050113;28;20198;-85
2024/01/31 05:39:31;;;;;;;141.75;49.95;;;-1.70;99.90;;;;;;5061637;28;21816;-85
2024/01/31 05:41:58;;;;;;;119.03;48.38;;;-1.70;99.90;;;;;;5057630;28;20230;-86
2024/01/31 05:44:25;;;;;;;159.57;50.10;;;-1.70;99.90;;;;;;5059985;28;20234;-87
2024/01/31 05:46:51;;;;;;;117.95;44.95;;;-1.70;99.90;;;;;;5053945;28;20195;-87
2024/01/31 05:49:20;;;;;;;115.35;45.90;;;-1.80;99.90;;;;;;5051369;28;20260;-89
2024/01/31 05:51:47;;;;;;;114.18;46.67;;;-1.80;99.90;;;;;;5045464;28;20211;-85
2024/01/31 05:54:14;;;;;;;138.20;51.55;;;-1.70;99.90;;;;;;5059446;28;20306;-78
2024/01/31 05:56:41;;;;;;;124.97;43.75;;;-1.70;99.90;;;;;;5061698;28;20225;-78
2024/01/31 05:59:08;;;;;;;136.80;43.03;;;-1.60;99.90;;;;;;5067391;28;20202;-78
2024/01/31 06:01:35;;;;;;;118.50;44.33;;;-1.70;99.90;;;;;;5066480;28;20231;-78
2024/01/31 06:04:03;;;;;;;117.90;42.88;;;-1.80;99.90;;;;;;5070219;28;20751;-80
2024/01/31 06:06:32;;;;;;;108.25;43.92;;;-1.80;99.90;;;;;;5060426;28;20386;-79
2024/01/31 06:08:59;;;;;;;120.45;44.33;;;-1.80;99.90;;;;;;5054780;28;20284;-79
2024/01/31 06:11:25;;;;;;;109.22;41.72;;;-1.90;99.90;;;;;;5062475;28;20293;-78
2024/01/31 06:13:53;;;;;;;113.57;45.17;;;-2.00;99.90;;;;;;5062293;28;20213;-79
2024/01/31 06:16:20;;;;;;;121.05;44.25;;;-2.00;99.90;;;;;;5057149;28;20198;-79
2024/01/31 06:18:46;;;;;;;107.82;42.05;;;-2.10;99.90;;;;;;5066272;28;20194;-79
2024/01/31 06:21:13;;;;;;;107.97;39.78;;;-2.20;99.90;;;;;;5059072;28;20680;-79
2024/01/31 06:23:42;;;;;;;105.87;41.13;;;-2.20;99.90;;;;;;5063444;28;20251;-80
2024/01/31 06:26:09;;;;;;;176.40;71.75;;;-2.20;99.90;;;;;;5058426;28;20441;-80
2024/01/31 06:28:38;;;;;;;128.73;52.13;;;-2.10;99.90;;;;;;5057848;28;20318;-78
2024/01/31 06:31:13;;;;;;;121.95;48.08;;;-2.10;99.90;;;;;;5064647;28;20210;-79
2024/01/31 06:33:41;;;;;;;195.70;55.33;;;-2.00;99.90;;;;;;5067254;28;20195;-78
2024/01/31 06:36:08;;;;;;;195.90;53.88;;;-1.90;99.90;;;;;;5053280;28;20235;-79
2024/01/31 06:38:35;;;;;;;177.70;54.45;;;-2.00;99.90;;;;;;5059917;28;20193;-78
2024/01/31 06:41:04;;;;;;;158.00;55.75;;;-2.10;99.90;;;;;;5071797;28;20225;-79
2024/01/31 06:43:31;;;;;;;139.52;49.28;;;-1.90;99.90;;;;;;5063532;28;20279;-79
2024/01/31 06:45:58;;;;;;;109.85;47.25;;;-1.90;99.90;;;;;;5068406;28;20757;-79
2024/01/31 06:48:25;;;;;;;107.32;43.55;;;-1.90;99.90;;;;;;5065598;28;20201;-78
2024/01/31 06:50:52;;;;;;;120.68;45.95;;;-2.00;99.90;;;;;;5068066;28;20208;-78
2024/01/31 06:53:19;;;;;;;111.60;47.90;;;-2.00;99.90;;;;;;5059934;28;20211;-80
2024/01/31 06:55:46;;;;;;;138.13;53.30;;;-1.90;99.90;;;;;;5064960;28;21015;-79
2024/01/31 06:58:14;;;;;;;128.48;51.13;;;-2.00;99.90;;;;;;5064344;28;20206;-84
2024/01/31 07:00:41;;;;;;;107.63;46.60;;;-2.10;99.90;;;;;;5066117;28;20631;-78
2024/01/31 07:03:09;;;;;;;110.00;44.50;;;-2.00;99.90;;;;;;5063229;28;20242;-81
2024/01/31 07:05:36;;;;;;;112.65;47.00;;;-2.00;99.90;;;;;;5060446;28;20753;-80
2024/01/31 07:08:03;;;;;;;108.43;48.10;;;-2.00;99.90;;;;;;5064024;28;20262;-79
2024/01/31 07:10:29;;;;;;;107.03;42.38;;;-2.00;99.90;;;;;;5050875;28;20198;-78
2024/01/31 07:12:56;;;;;;;102.97;41.53;;;-1.90;99.90;;;;;;5065311;28;20201;-80
2024/01/31 07:15:25;;;;;;;106.85;43.55;;;-1.90;99.90;;;;;;5064243;28;20203;-81
2024/01/31 07:17:52;;;;;;;109.70;44.97;;;-1.90;99.90;;;;;;5065058;28;20201;-78
2024/01/31 07:20:19;;;;;;;116.00;48.33;;;-1.90;99.90;;;;;;5062979;28;20285;-78
2024/01/31 07:22:46;;;;;;;101.07;41.00;;;-1.80;99.90;;;;;;5078810;28;20460;-89
2024/01/31 07:25:14;;;;;;;151.15;52.55;;;-1.80;99.90;;;;;;5070904;28;20852;-78
2024/01/31 07:27:42;;;;;;;121.28;50.05;;;-1.80;99.90;;;;;;5060656;28;20194;-79
2024/01/31 07:30:11;;;;;;;115.60;44.42;;;-1.90;99.90;;;;;;5060014;28;20209;-79
2024/01/31 07:32:39;;;;;;;112.55;45.90;;;-1.90;99.90;;;;;;5061470;28;20201;-79
2024/01/31 07:35:08;;;;;;;127.55;48.25;;;-1.80;99.90;;;;;;5065208;28;20278;-84
2024/01/31 07:37:37;;;;;;;110.47;43.72;;;-1.90;99.90;;;;;;5065786;28;21148;-81
2024/01/31 07:40:04;;;;;;;108.65;40.85;;;-1.70;99.90;;;;;;5060633;28;20692;-76
2024/01/31 07:42:32;;;;;;;105.93;43.80;;;-1.60;99.90;;;;;;5053321;28;20306;-82
2024/01/31 07:44:58;;;;;;;109.20;43.23;;;-1.50;99.90;;;;;;5062234;28;20551;-81
2024/01/31 07:47:25;;;;;;;107.87;43.30;;;-1.50;99.90;;;;;;5066429;28;20491;-80
2024/01/31 07:49:54;;;;;;;107.10;43.90;;;-1.30;99.90;;;;;;5066429;28;20463;-81
2024/01/31 07:52:21;;;;;;;105.63;40.80;;;-1.10;99.90;;;;;;5057131;28;20499;-83
2024/01/31 07:54:47;;;;;;;115.13;44.33;;;-0.90;99.90;;;;;;5068539;28;20497;-79
2024/01/31 07:57:14;;;;;;;111.80;41.87;;;-0.90;99.90;;;;;;5063049;28;20450;-82
2024/01/31 07:59:41;;;;;;;107.80;42.45;;;-0.80;99.90;;;;;;5063255;28;20499;-81
2024/01/31 08:02:08;;;;;;;113.57;49.50;;;-0.70;99.90;;;;;;5068076;28;20302;-82
2024/01/31 08:04:35;;;;;;;112.83;44.37;;;-0.40;99.90;;;;;;5069336;28;20528;-81
2024/01/31 08:07:03;;;;;;;110.33;39.70;;;-0.30;99.90;;;;;;5061253;28;20529;-84
2024/01/31 08:09:30;;;;;;;110.53;43.80;;;-0.20;99.90;;;;;;5064755;28;20588;-84
2024/01/31 08:11:57;;;;;;;110.77;45.03;;;-0.10;99.90;;;;;;5064785;28;20456;-83
2024/01/31 08:14:24;;;;;;;111.57;42.67;;;-0.20;99.90;;;;;;5066859;28;20470;-83
2024/01/31 08:16:51;;;;;;;107.93;43.10;;;-0.30;99.90;;;;;;5054836;28;20463;-82
2024/01/31 08:19:18;;;;;;;109.50;43.50;;;-0.20;99.90;;;;;;5056366;28;21159;-83
2024/01/31 08:21:46;;;;;;;112.73;42.60;;;-0.20;99.90;;;;;;5070570;28;21025;-83
2024/01/31 08:24:14;;;;;;;107.87;41.80;;;-0.10;99.90;;;;;;5062822;28;20499;-83
2024/01/31 08:26:41;;;;;;;123.77;48.90;;;0.00;99.90;;;;;;5063824;28;20462;-82
2024/01/31 08:29:08;;;;;;;115.90;43.73;;;0.00;99.90;;;;;;5067732;28;20476;-84
2024/01/31 08:31:35;;;;;;;113.20;43.27;;;0.30;99.90;;;;;;5060609;28;20519;-84
2024/01/31 08:34:01;;;;;;;111.97;45.77;;;0.40;99.90;;;;;;5061174;28;20461;-84
2024/01/31 08:36:30;;;;;;;112.77;44.93;;;0.50;99.90;;;;;;5059649;28;20447;-83
2024/01/31 08:38:56;;;;;;;112.67;46.40;;;0.50;99.90;;;;;;5056019;28;20832;-84
2024/01/31 08:41:25;;;;;;;102.63;41.93;;;0.50;99.90;;;;;;5064059;28;20574;-84
2024/01/31 08:43:52;;;;;;;103.93;41.03;;;0.60;99.90;;;;;;5063455;28;20463;-83
2024/01/31 08:46:19;;;;;;;109.47;44.13;;;0.60;99.90;;;;;;5056200;28;20650;-82
2024/01/31 08:48:46;;;;;;;109.97;45.83;;;0.70;99.90;;;;;;5050762;28;20475;-82
2024/01/31 08:51:14;;;;;;;109.93;44.07;;;0.70;99.90;;;;;;5073876;28;20456;-82
2024/01/31 08:53:42;;;;;;;107.47;43.87;;;0.80;99.90;;;;;;5066472;28;20459;-82
2024/01/31 08:56:10;;;;;;;108.50;42.23;;;0.90;99.90;;;;;;5071381;28;20466;-82
2024/01/31 08:58:39;;;;;;;110.00;43.80;;;1.00;99.90;;;;;;5055426;28;20453;-82
2024/01/31 09:01:07;;;;;;;105.07;43.10;;;1.00;99.90;;;;;;5054758;28;20483;-82
2024/01/31 09:03:34;;;;;;;115.37;46.83;;;1.30;99.90;;;;;;5056772;28;20482;-82
2024/01/31 09:06:01;;;;;;;109.17;42.37;;;1.30;99.90;;;;;;5062871;28;20513;-82
2024/01/31 09:08:28;;;;;;;113.10;45.63;;;1.40;99.90;;;;;;5062883;28;20490;-82
2024/01/31 09:10:56;;;;;;;111.00;42.27;;;1.70;99.90;;;;;;5053150;28;21112;-82
2024/01/31 09:13:23;;;;;;;107.97;42.30;;;2.00;99.90;;;;;;5053002;28;20463;-82
2024/01/31 09:15:51;;;;;;;104.77;40.10;;;2.20;99.90;;;;;;5072541;28;20836;-82
2024/01/31 09:18:18;;;;;;;109.13;42.00;;;2.30;99.90;;;;;;5063077;28;20467;-87
2024/01/31 09:20:45;;;;;;;112.07;44.77;;;2.30;99.90;;;;;;5056665;28;20555;-82
2024/01/31 09:23:12;;;;;;;116.90;40.67;;;2.40;99.90;;;;;;5065125;28;20519;-82
2024/01/31 09:25:39;;;;;;;106.67;37.90;;;2.40;99.90;;;;;;5049696;28;20510;-84
2024/01/31 09:28:06;;;;;;;124.43;45.13;;;2.50;99.90;;;;;;5058366;28;20471;-82
2024/01/31 09:30:33;;;;;;;101.97;37.70;;;2.80;99.90;;;;;;5056801;28;20554;-81
2024/01/31 09:33:02;;;;;;;103.20;38.47;;;3.10;99.90;;;;;;5069732;28;20463;-80
2024/01/31 09:35:29;;;;;;;109.70;39.80;;;3.20;99.90;;;;;;5058565;28;20538;-81
2024/01/31 09:37:56;;;;;;;104.30;32.70;;;3.40;99.90;;;;;;5063644;28;20539;-82
2024/01/31 09:40:23;;;;;;;105.43;33.43;;;3.50;99.90;;;;;;5062658;28;20508;-82
2024/01/31 09:42:51;;;;;;;101.40;34.27;;;3.50;99.90;;;;;;5055727;28;20583;-84
2024/01/31 09:45:19;;;;;;;96.77;30.10;;;3.30;99.90;;;;;;5082000;28;20455;-82
2024/01/31 09:47:47;;;;;;;99.57;34.07;;;3.00;99.90;;;;;;5067875;28;20487;-81
2024/01/31 09:50:18;;;;;;;96.97;29.90;;;3.10;99.90;;;;;;5066752;28;20542;-79
2024/01/31 09:52:48;;;;;;;95.67;32.37;;;3.30;99.90;;;;;;5066633;28;20460;-79
2024/01/31 09:55:16;;;;;;;97.07;33.37;;;3.30;99.90;;;;;;5061851;28;21024;-82
2024/01/31 09:57:43;;;;;;;90.80;27.10;;;3.30;99.90;;;;;;5055655;28;21150;-78
2024/01/31 10:00:10;;;;;;;97.80;29.10;;;3.40;99.90;;;;;;5054376;28;20728;-77
2024/01/31 10:02:38;;;;;;;93.73;27.57;;;3.30;99.90;;;;;;5059544;28;20483;-79
2024/01/31 10:05:06;;;;;;;91.43;28.20;;;3.30;99.90;;;;;;5062936;28;20484;-78
2024/01/31 10:07:38;;;;;;;91.67;28.00;;;3.30;99.90;;;;;;5058818;28;20544;-79
2024/01/31 10:10:07;;;;;;;90.27;33.13;;;3.40;99.90;;;;;;5057932;28;20579;-78
2024/01/31 10:12:33;;;;;;;100.23;32.47;;;3.30;99.90;;;;;;5055784;28;20463;-78
2024/01/31 10:15:00;;;;;;;97.47;30.70;;;3.10;99.90;;;;;;5055723;28;21103;-79
2024/01/31 10:17:27;;;;;;;97.27;31.73;;;3.20;99.90;;;;;;5063436;28;20460;-78
2024/01/31 10:19:54;;;;;;;96.63;31.37;;;2.90;99.90;;;;;;5074478;28;20599;-78
2024/01/31 10:22:22;;;;;;;96.20;31.93;;;2.60;99.90;;;;;;5065423;28;20550;-78
2024/01/31 10:24:51;;;;;;;93.00;33.33;;;2.70;99.90;;;;;;5055476;28;20476;-78
2024/01/31 10:27:21;;;;;;;102.30;41.90;;;2.60;99.90;;;;;;5051871;28;20445;-79
2024/01/31 10:29:48;;;;;;;96.93;39.50;;;2.40;99.90;;;;;;5067165;28;21009;-77
2024/01/31 10:32:16;;;;;;;102.30;57.43;;;2.30;99.90;;;;;;5062071;28;20920;-79
2024/01/31 10:34:44;;;;;;;100.47;50.80;;;2.40;99.90;;;;;;5061068;28;20538;-78
2024/01/31 10:37:11;;;;;;;100.97;56.47;;;2.40;99.90;;;;;;5056746;28;20488;-79
2024/01/31 10:39:40;;;;;;;99.33;53.23;;;2.40;99.90;;;;;;5054978;28;20530;-78
2024/01/31 10:42:09;;;;;;;98.07;52.13;;;2.40;99.90;;;;;;5062609;28;21003;-78
2024/01/31 10:44:39;;;;;;;102.07;60.07;;;2.50;99.90;;;;;;5064982;28;20487;-82
2024/01/31 10:47:07;;;;;;;99.17;60.20;;;2.40;99.90;;;;;;5066167;28;20444;-78
2024/01/31 10:49:34;;;;;;;102.27;61.20;;;2.00;99.90;;;;;;5062429;28;20545;-77
2024/01/31 10:52:04;;;;;;;104.80;63.27;;;1.80;99.90;;;;;;5060384;28;21086;-79
2024/01/31 10:54:37;;;;;;;107.40;55.60;;;1.80;99.90;;;;;;5051703;28;21903;-77
2024/01/31 10:57:05;;;;;;;104.37;55.90;;;1.70;99.90;;;;;;5060841;28;20522;-78
2024/01/31 10:59:37;;;;;;;103.93;52.50;;;1.50;99.90;;;;;;5056861;28;20460;-77
2024/01/31 11:02:05;;;;;;;104.37;56.00;;;1.50;99.90;;;;;;5060573;28;20480;-77
2024/01/31 11:04:32;;;;;;;103.23;52.57;;;1.70;99.90;;;;;;5064930;28;20798;-77
2024/01/31 11:07:00;;;;;;;98.93;53.43;;;1.70;99.90;;;;;;5059993;28;20545;-78
2024/01/31 11:09:28;;;;;;;107.23;58.73;;;1.70;99.90;;;;;;5060169;28;21192;-78
2024/01/31 11:12:06;;;;;;;100.30;58.23;;;1.80;99.90;;;;;;5058659;28;20490;-80
2024/01/31 11:14:33;;;;;;;108.37;62.80;;;2.00;99.90;;;;;;5060487;28;20534;-78
2024/01/31 11:17:09;;;;;;;102.70;64.83;;;2.20;99.90;;;;;;5069147;28;20999;-78
2024/01/31 11:19:41;;;;;;;108.73;65.53;;;2.40;99.90;;;;;;5072583;28;20550;-78
2024/01/31 11:22:08;;;;;;;106.27;66.70;;;2.80;99.90;;;;;;5054175;28;20880;-78
2024/01/31 11:24:35;;;;;;;100.20;59.63;;;2.80;99.90;;;;;;5054364;28;20519;-78
2024/01/31 11:27:03;;;;;;;98.67;52.20;;;3.10;99.90;;;;;;5061243;28;20573;-78
2024/01/31 11:29:30;;;;;;;101.77;50.03;;;3.30;99.90;;;;;;5052683;28;20502;-78
2024/01/31 11:31:58;;;;;;;109.77;53.27;;;3.30;99.90;;;;;;5059657;28;21033;-78
2024/01/31 11:34:26;;;;;;;108.10;54.60;;;3.50;99.90;;;;;;5064581;28;20549;-78
2024/01/31 11:36:53;;;;;;;102.83;53.53;;;3.40;99.90;;;;;;5063332;28;20503;-79
2024/01/31 11:39:20;;;;;;;96.67;51.83;;;3.30;99.90;;;;;;5063905;28;20899;-78
2024/01/31 11:41:47;;;;;;;96.93;47.47;;;3.70;99.90;;;;;;5062326;28;20484;-79
2024/01/31 11:44:14;;;;;;;98.73;45.53;;;4.00;99.90;;;;;;5067992;28;20483;-79
2024/01/31 11:46:41;;;;;;;97.27;45.07;;;4.20;99.90;;;;;;5056147;28;20547;-78
2024/01/31 11:49:08;;;;;;;97.90;46.63;;;4.60;99.90;;;;;;5056531;28;20491;-80
2024/01/31 11:51:36;;;;;;;94.37;41.33;;;4.70;99.90;;;;;;5059873;28;20455;-79
2024/01/31 11:54:04;;;;;;;93.77;39.17;;;4.90;99.90;;;;;;5064348;28;20925;-78
2024/01/31 11:56:31;;;;;;;92.30;39.10;;;5.10;99.90;;;;;;5065144;28;20494;-78
2024/01/31 11:58:59;;;;;;;89.87;38.13;;;5.40;99.90;;;;;;5055996;28;20456;-78
2024/01/31 12:01:27;;;;;;;94.70;48.63;;;5.60;99.90;;;;;;5057263;28;20456;-79
2024/01/31 12:03:54;;;;;;;92.27;45.87;;;5.30;99.90;;;;;;5057968;28;20576;-78
2024/01/31 12:06:21;;;;;;;89.93;39.37;;;5.30;99.90;;;;;;5060727;28;20488;-78
2024/01/31 12:08:50;;;;;;;90.87;36.80;;;5.50;99.90;;;;;;5050104;28;20545;-78
2024/01/31 12:11:18;;;;;;;87.77;36.03;;;5.60;99.90;;;;;;5059308;28;20523;-77
2024/01/31 12:13:45;;;;;;;95.70;35.77;;;5.50;99.90;;;;;;5061497;28;20493;-78
2024/01/31 12:16:12;;;;;;;100.00;36.27;;;5.40;99.90;;;;;;5067436;28;21007;-78
2024/01/31 12:18:40;;;;;;;91.87;34.97;;;5.40;99.90;;;;;;5060088;28;20528;-78
2024/01/31 12:21:10;;;;;;;91.87;31.57;;;5.30;99.90;;;;;;5057189;28;20454;-79
2024/01/31 12:23:37;;;;;;;92.53;32.73;;;5.10;99.90;;;;;;5056624;28;20989;-77